createdAt,value
2023-02-15T00:00:13.214Z,99.90
2023-02-15T00:02:40.670Z,99.90
2023-02-15T00:05:09.298Z,99.90
2023-02-15T00:07:36.758Z,99.90
2023-02-15T00:10:05.122Z,99.90
2023-02-15T00:12:32.701Z,99.90
2023-02-15T00:15:00.152Z,99.90
2023-02-15T00:17:30.822Z,99.90
2023-02-15T00:19:58.264Z,99.90
2023-02-15T00:22:27.173Z,99.90
2023-02-15T00:24:54.649Z,99.90
2023-02-15T00:27:22.321Z,99.90
2023-02-15T00:29:49.945Z,99.90
2023-02-15T00:32:17.421Z,99.90
2023-02-15T00:34:44.955Z,99.90
2023-02-15T00:37:12.378Z,99.90
2023-02-15T00:39:39.856Z,99.90
2023-02-15T00:42:07.447Z,99.90
2023-02-15T00:44:35.165Z,99.90
2023-02-15T00:47:02.705Z,99.90
2023-02-15T00:49:30.209Z,99.90
2023-02-15T00:51:57.726Z,99.90
2023-02-15T00:54:25.224Z,99.90
2023-02-15T00:56:52.610Z,99.90
2023-02-15T00:59:20.053Z,99.90
2023-02-15T01:01:48.925Z,99.90
2023-02-15T01:04:16.433Z,99.90
2023-02-15T01:06:44.008Z,99.90
2023-02-15T01:09:11.602Z,99.90
2023-02-15T01:11:39.063Z,99.90
2023-02-15T01:14:06.578Z,99.90
2023-02-15T01:16:34.151Z,99.90
2023-02-15T01:19:03.709Z,99.90
2023-02-15T01:21:35.381Z,99.90
2023-02-15T01:24:04.013Z,99.90
2023-02-15T01:26:31.688Z,99.90
2023-02-15T01:28:59.795Z,99.90
2023-02-15T01:31:27.365Z,99.90
2023-02-15T01:33:54.900Z,99.90
2023-02-15T01:36:22.484Z,99.90
2023-02-15T01:38:50.457Z,99.90
2023-02-15T01:41:30.575Z,99.90
2023-02-15T01:44:00.680Z,99.90
2023-02-15T01:46:44.181Z,99.90
2023-02-15T01:49:17.810Z,99.90
2023-02-15T01:51:47.282Z,99.90
2023-02-15T01:54:36.802Z,99.90
2023-02-15T01:57:14.634Z,99.90
2023-02-15T01:59:46.733Z,99.90
2023-02-15T02:02:16.011Z,99.90
2023-02-15T02:04:49.920Z,99.90
2023-02-15T02:07:23.509Z,99.90
2023-02-15T02:09:51.598Z,99.90
2023-02-15T02:12:21.071Z,99.90
2023-02-15T02:14:49.794Z,99.90
2023-02-15T02:17:33.164Z,99.90
2023-02-15T02:20:09.508Z,99.90
2023-02-15T02:22:58.114Z,99.90
2023-02-15T02:25:28.560Z,99.90
2023-02-15T02:28:07.979Z,99.90
2023-02-15T02:30:49.982Z,99.90
2023-02-15T02:33:26.343Z,99.90
2023-02-15T02:36:11.558Z,99.90
2023-02-15T02:38:46.467Z,99.90
2023-02-15T02:41:42.844Z,99.90
2023-02-15T02:44:23.056Z,99.90
2023-02-15T02:46:55.346Z,99.90
2023-02-15T02:49:38.035Z,99.90
2023-02-15T02:52:27.414Z,99.90
2023-02-15T02:54:56.064Z,99.90
2023-02-15T02:57:25.242Z,99.90
2023-02-15T02:59:55.106Z,99.90
2023-02-15T03:02:28.708Z,99.90
2023-02-15T03:05:04.714Z,99.90
2023-02-15T03:07:35.118Z,99.90
2023-02-15T03:10:05.781Z,99.90
2023-02-15T03:12:36.786Z,99.90
2023-02-15T03:15:54.963Z,99.90
2023-02-15T03:18:29.138Z,99.90
2023-02-15T03:20:57.544Z,99.90
2023-02-15T03:23:28.628Z,99.90
2023-02-15T03:26:05.881Z,99.90
2023-02-15T03:28:45.040Z,99.90
2023-02-15T03:31:17.183Z,99.90
2023-02-15T03:34:10.861Z,99.90
2023-02-15T03:36:56.049Z,99.90
2023-02-15T03:39:39.273Z,99.90
2023-02-15T03:42:12.810Z,99.90
2023-02-15T03:44:48.200Z,99.90
2023-02-15T03:47:20.539Z,99.90
2023-02-15T03:50:25.864Z,99.90
2023-02-15T03:52:56.042Z,99.90
2023-02-15T03:55:23.830Z,99.90
2023-02-15T03:58:09.851Z,99.90
2023-02-15T04:01:00.870Z,99.90
2023-02-15T04:03:34.724Z,99.90
2023-02-15T04:06:04.109Z,99.90
2023-02-15T04:08:50.261Z,99.90
2023-02-15T04:11:17.893Z,99.90
2023-02-15T04:13:45.517Z,99.90
2023-02-15T04:16:13.127Z,99.90
2023-02-15T04:19:01.432Z,99.90
2023-02-15T04:21:50.046Z,99.90
2023-02-15T04:24:35.912Z,99.90
2023-02-15T04:27:05.308Z,99.90
2023-02-15T04:29:33.394Z,99.90
2023-02-15T04:32:03.481Z,99.90
2023-02-15T04:34:30.945Z,99.90
2023-02-15T04:36:58.349Z,99.90
2023-02-15T04:39:25.906Z,99.90
2023-02-15T04:41:53.351Z,99.90
2023-02-15T04:44:20.802Z,99.90
2023-02-15T04:46:48.318Z,99.90
2023-02-15T04:49:15.925Z,99.90
2023-02-15T04:51:43.327Z,99.90
2023-02-15T04:54:10.723Z,99.90
2023-02-15T04:56:39.825Z,99.90
2023-02-15T04:59:07.368Z,99.90
2023-02-15T05:01:34.806Z,99.90
2023-02-15T05:04:02.612Z,99.90
2023-02-15T05:06:30.368Z,99.90
2023-02-15T05:09:00.237Z,99.90
2023-02-15T05:11:28.093Z,99.90
2023-02-15T05:13:55.597Z,99.90
2023-02-15T05:16:23.212Z,99.90
2023-02-15T05:18:50.655Z,99.90
2023-02-15T05:21:18.099Z,99.90
2023-02-15T05:23:45.631Z,99.90
2023-02-15T05:26:37.179Z,99.90
2023-02-15T05:29:05.511Z,99.90
2023-02-15T05:31:34.186Z,99.90
2023-02-15T05:34:02.208Z,99.90
2023-02-15T05:36:29.915Z,99.90
2023-02-15T05:38:57.389Z,99.90
2023-02-15T05:41:25.235Z,99.90
2023-02-15T05:43:52.736Z,99.90
2023-02-15T05:46:20.191Z,99.90
2023-02-15T05:48:47.735Z,99.90
2023-02-15T05:51:16.882Z,99.90
2023-02-15T05:53:44.529Z,99.90
2023-02-15T05:56:13.193Z,99.90
2023-02-15T05:58:42.690Z,99.90
2023-02-15T06:01:10.182Z,99.90
2023-02-15T06:03:38.107Z,99.90
2023-02-15T06:06:05.939Z,99.90
2023-02-15T06:08:34.377Z,99.90
2023-02-15T06:11:02.079Z,99.90
2023-02-15T06:13:30.184Z,99.90
2023-02-15T06:15:57.681Z,99.90
2023-02-15T06:18:25.383Z,99.90
2023-02-15T06:20:52.814Z,99.90
2023-02-15T06:23:20.300Z,99.90
2023-02-15T06:25:48.055Z,99.90
2023-02-15T06:28:15.671Z,99.90
2023-02-15T06:30:43.183Z,99.90
2023-02-15T06:33:10.754Z,99.90
2023-02-15T06:35:38.349Z,99.90
2023-02-15T06:38:05.792Z,99.90
2023-02-15T06:40:33.264Z,99.90
2023-02-15T06:43:00.688Z,99.90
2023-02-15T06:45:28.171Z,99.90
2023-02-15T06:47:55.604Z,99.90
2023-02-15T06:50:23.134Z,99.90
2023-02-15T06:52:50.551Z,99.90
2023-02-15T06:55:18.120Z,99.90
2023-02-15T06:57:45.558Z,99.90
2023-02-15T07:00:13.826Z,99.90
2023-02-15T07:02:41.317Z,99.90
2023-02-15T07:05:09.018Z,99.90
2023-02-15T07:07:36.651Z,99.90
2023-02-15T07:10:04.728Z,99.90
2023-02-15T07:12:45.284Z,99.90
2023-02-15T07:15:18.291Z,99.90
2023-02-15T07:17:45.884Z,99.90
2023-02-15T07:20:17.658Z,99.90
2023-02-15T07:22:45.480Z,99.90
2023-02-15T07:25:13.753Z,99.90
2023-02-15T07:27:41.337Z,99.90
2023-02-15T07:30:11.711Z,99.90
2023-02-15T07:32:59.213Z,99.90
2023-02-15T07:35:26.989Z,99.90
2023-02-15T07:37:55.310Z,99.90
2023-02-15T07:40:24.475Z,99.90
2023-02-15T07:42:54.276Z,99.90
2023-02-15T07:45:23.126Z,99.90
2023-02-15T07:47:50.686Z,99.90
2023-02-15T07:50:18.263Z,99.90
2023-02-15T07:52:45.666Z,99.90
2023-02-15T07:55:14.050Z,99.90
2023-02-15T07:57:46.141Z,99.90
2023-02-15T08:00:14.827Z,99.90
2023-02-15T08:02:42.526Z,99.90
2023-02-15T08:05:10.172Z,99.90
2023-02-15T08:07:37.621Z,99.90
2023-02-15T08:10:05.603Z,99.90
2023-02-15T08:12:33.096Z,99.90
2023-02-15T08:15:00.606Z,99.90
2023-02-15T08:17:28.033Z,99.90
2023-02-15T08:19:55.508Z,99.90
2023-02-15T08:22:22.962Z,99.90
2023-02-15T08:24:50.355Z,99.90
2023-02-15T08:27:17.746Z,99.90
2023-02-15T08:29:45.113Z,99.90
2023-02-15T08:32:13.978Z,99.90
2023-02-15T08:34:42.812Z,99.90
2023-02-15T08:37:10.550Z,99.90
2023-02-15T08:39:38.015Z,99.90
2023-02-15T08:42:05.530Z,99.90
2023-02-15T08:44:32.979Z,99.90
2023-02-15T08:47:04.544Z,98.90
2023-02-15T08:49:32.912Z,98.00
2023-02-15T08:52:00.856Z,98.30
2023-02-15T08:54:28.303Z,96.60
2023-02-15T08:56:55.682Z,96.30
2023-02-15T08:59:25.839Z,96.70
2023-02-15T09:01:54.746Z,96.50
2023-02-15T09:04:23.701Z,95.80
2023-02-15T09:06:51.530Z,95.50
2023-02-15T09:09:19.821Z,95.60
2023-02-15T09:11:56.739Z,95.60
2023-02-15T09:14:27.705Z,96.40
2023-02-15T09:16:55.540Z,95.70
2023-02-15T09:19:24.022Z,95.30
2023-02-15T09:21:52.467Z,96.00
2023-02-15T09:24:19.889Z,96.70
2023-02-15T09:26:49.173Z,96.20
2023-02-15T09:29:17.997Z,95.90
2023-02-15T09:31:51.038Z,95.80
2023-02-15T09:34:21.963Z,95.90
2023-02-15T09:36:50.082Z,95.30
2023-02-15T09:39:18.926Z,95.40
2023-02-15T09:42:07.950Z,94.30
2023-02-15T09:45:05.870Z,94.50
2023-02-15T09:47:55.065Z,95.10
2023-02-15T09:50:59.516Z,95.10
2023-02-15T09:53:33.185Z,94.30
2023-02-15T09:56:22.216Z,94.70
2023-02-15T09:58:52.663Z,94.20
2023-02-15T10:01:38.359Z,93.90
2023-02-15T10:04:17.808Z,93.70
2023-02-15T10:07:17.412Z,94.30
2023-02-15T10:10:09.469Z,93.90
2023-02-15T10:12:43.679Z,93.20
2023-02-15T10:15:32.718Z,93.80
2023-02-15T10:18:18.214Z,94.20
2023-02-15T10:21:04.164Z,93.60
2023-02-15T10:23:52.689Z,93.50
2023-02-15T10:26:50.966Z,93.20
2023-02-15T10:29:50.718Z,93.70
2023-02-15T10:32:27.661Z,93.60
2023-02-15T10:35:01.135Z,93.60
2023-02-15T10:37:38.679Z,93.90
2023-02-15T10:40:21.187Z,94.00
2023-02-15T10:43:13.472Z,94.00
2023-02-15T10:46:02.930Z,93.00
2023-02-15T10:49:07.653Z,93.40
2023-02-15T10:51:58.990Z,93.10
2023-02-15T10:54:42.993Z,92.90
2023-02-15T10:57:37.214Z,92.90
2023-02-15T11:00:16.844Z,93.00
2023-02-15T11:02:56.642Z,92.50
2023-02-15T11:05:45.455Z,92.70
2023-02-15T11:08:13.341Z,91.00
2023-02-15T11:10:58.135Z,91.90
2023-02-15T11:13:29.376Z,92.40
2023-02-15T11:15:58.665Z,92.20
2023-02-15T11:18:26.088Z,92.10
2023-02-15T11:21:19.777Z,91.50
2023-02-15T11:23:48.345Z,92.00
2023-02-15T11:26:38.479Z,91.30
2023-02-15T11:29:11.656Z,91.20
2023-02-15T11:31:49.253Z,92.00
2023-02-15T11:34:30.587Z,91.60
2023-02-15T11:37:06.300Z,91.10
2023-02-15T11:39:38.166Z,91.20
2023-02-15T11:42:19.218Z,91.10
2023-02-15T11:45:08.497Z,90.60
2023-02-15T11:47:36.021Z,89.60
2023-02-15T11:50:03.985Z,87.60
2023-02-15T11:52:32.285Z,88.70
2023-02-15T11:54:59.714Z,88.10
2023-02-15T11:57:41.544Z,86.80
2023-02-15T12:00:15.241Z,88.20
2023-02-15T12:02:48.026Z,87.60
2023-02-15T12:05:23.112Z,87.70
2023-02-15T12:08:10.628Z,88.10
2023-02-15T12:10:56.441Z,87.40
2023-02-15T12:13:24.626Z,86.70
2023-02-15T12:15:55.101Z,86.20
2023-02-15T12:18:41.446Z,85.30
2023-02-15T12:21:14.492Z,85.90
2023-02-15T12:23:49.248Z,86.50
2023-02-15T12:26:35.430Z,86.50
2023-02-15T12:29:13.794Z,87.50
2023-02-15T12:31:46.006Z,87.90
2023-02-15T12:34:23.780Z,86.20
2023-02-15T12:36:59.115Z,86.80
2023-02-15T12:39:31.954Z,87.50
2023-02-15T12:42:04.647Z,87.90
2023-02-15T12:44:34.912Z,87.40
2023-02-15T12:47:17.482Z,85.10
2023-02-15T12:49:48.027Z,84.00
2023-02-15T12:52:26.487Z,85.60
2023-02-15T12:54:54.038Z,85.80
2023-02-15T12:57:32.152Z,85.80
2023-02-15T13:00:25.591Z,85.80
2023-02-15T13:02:55.502Z,84.60
2023-02-15T13:05:39.579Z,85.50
2023-02-15T13:08:17.736Z,85.70
2023-02-15T13:10:58.744Z,82.20
2023-02-15T13:13:30.355Z,82.40
2023-02-15T13:16:03.787Z,82.80
2023-02-15T13:18:39.788Z,84.60
2023-02-15T13:21:14.565Z,82.10
2023-02-15T13:23:49.418Z,82.50
2023-02-15T13:26:22.346Z,83.20
2023-02-15T13:29:06.345Z,80.80
2023-02-15T13:31:34.284Z,81.40
2023-02-15T13:34:11.039Z,83.40
2023-02-15T13:36:46.810Z,82.80
2023-02-15T13:39:26.603Z,81.30
2023-02-15T13:42:03.332Z,80.90
2023-02-15T13:44:52.242Z,80.30
2023-02-15T13:47:45.141Z,79.80
2023-02-15T13:51:03.439Z,78.30
2023-02-15T13:53:42.892Z,78.90
2023-02-15T13:56:41.716Z,81.20
2023-02-15T13:59:46.635Z,83.70
2023-02-15T14:02:35.171Z,86.00
2023-02-15T14:05:23.813Z,84.50
2023-02-15T14:08:02.327Z,83.70
2023-02-15T14:10:47.691Z,82.90
2023-02-15T14:13:33.528Z,84.90
2023-02-15T14:16:07.121Z,85.90
2023-02-15T14:18:43.184Z,83.70
2023-02-15T14:21:33.143Z,83.10
2023-02-15T14:24:15.656Z,84.00
2023-02-15T14:26:48.625Z,84.50
2023-02-15T14:29:30.244Z,83.70
2023-02-15T14:32:02.784Z,84.90
2023-02-15T14:34:53.744Z,85.70
2023-02-15T14:37:58.664Z,84.50
2023-02-15T14:40:47.851Z,83.70
2023-02-15T14:43:18.347Z,84.00
2023-02-15T14:46:09.582Z,84.20
2023-02-15T14:48:46.327Z,83.70
2023-02-15T14:51:39.821Z,83.90
2023-02-15T14:54:11.957Z,84.50
2023-02-15T14:56:42.166Z,86.70
2023-02-15T14:59:19.255Z,85.30
2023-02-15T15:02:04.337Z,86.80
2023-02-15T15:04:39.422Z,86.50
2023-02-15T15:07:22.672Z,85.90
2023-02-15T15:10:02.954Z,87.10
2023-02-15T15:12:33.337Z,87.00
2023-02-15T15:15:02.247Z,86.90
2023-02-15T15:17:32.743Z,88.00
2023-02-15T15:20:08.284Z,87.40
2023-02-15T15:22:37.479Z,87.30
2023-02-15T15:25:11.926Z,86.80
2023-02-15T15:27:52.030Z,86.70
2023-02-15T15:30:19.595Z,88.50
2023-02-15T15:32:56.352Z,87.30
2023-02-15T15:36:01.423Z,86.90
2023-02-15T15:39:02.686Z,86.90
2023-02-15T15:41:43.847Z,86.20
2023-02-15T15:44:50.935Z,86.90
2023-02-15T15:47:58.718Z,88.30
2023-02-15T15:50:33.522Z,88.60
2023-02-15T15:53:03.238Z,88.40
2023-02-15T15:55:33.172Z,87.90
2023-02-15T15:58:07.171Z,88.00
2023-02-15T16:00:40.785Z,88.30
2023-02-15T16:03:25.181Z,88.40
2023-02-15T16:05:56.247Z,89.30
2023-02-15T16:08:35.734Z,89.40
2023-02-15T16:11:26.361Z,90.10
2023-02-15T16:13:54.568Z,90.00
2023-02-15T16:16:30.117Z,90.20
2023-02-15T16:19:00.392Z,90.90
2023-02-15T16:21:34.905Z,90.80
2023-02-15T16:24:27.834Z,91.00
2023-02-15T16:27:16.988Z,91.40
2023-02-15T16:29:44.475Z,92.00
2023-02-15T16:32:24.216Z,92.30
2023-02-15T16:35:00.299Z,93.10
2023-02-15T16:37:33.010Z,93.20
2023-02-15T16:40:00.672Z,92.90
2023-02-15T16:42:28.234Z,92.90
2023-02-15T16:45:05.110Z,92.30
2023-02-15T16:47:37.758Z,91.80
2023-02-15T16:50:06.287Z,91.70
2023-02-15T16:52:33.804Z,91.50
2023-02-15T16:55:05.508Z,91.40
2023-02-15T16:57:39.040Z,92.90
2023-02-15T17:00:16.298Z,92.30
2023-02-15T17:03:14.090Z,93.50
2023-02-15T17:05:43.539Z,93.90
2023-02-15T17:08:27.124Z,94.50
2023-02-15T17:11:01.234Z,95.20
2023-02-15T17:13:29.469Z,95.30
2023-02-15T17:16:03.052Z,95.30
2023-02-15T17:18:32.327Z,95.10
2023-02-15T17:21:09.484Z,95.60
2023-02-15T17:23:52.187Z,96.20
2023-02-15T17:26:27.855Z,96.50
2023-02-15T17:29:00.434Z,96.50
2023-02-15T17:31:32.973Z,97.00
2023-02-15T17:34:02.254Z,97.20
2023-02-15T17:36:32.015Z,97.50
2023-02-15T17:38:59.485Z,97.70
2023-02-15T17:41:38.291Z,96.90
2023-02-15T17:44:08.476Z,96.50
2023-02-15T17:46:38.032Z,96.70
2023-02-15T17:49:06.114Z,96.60
2023-02-15T17:51:35.984Z,97.50
2023-02-15T17:54:36.227Z,98.20
2023-02-15T17:57:06.871Z,98.20
2023-02-15T17:59:34.251Z,97.40
2023-02-15T18:02:20.287Z,96.80
2023-02-15T18:05:06.430Z,97.70
2023-02-15T18:07:52.489Z,98.40
2023-02-15T18:10:39.134Z,99.50
2023-02-15T18:13:06.654Z,99.90
2023-02-15T18:15:35.324Z,99.90
2023-02-15T18:18:03.080Z,99.30
2023-02-15T18:20:37.035Z,99.40
2023-02-15T18:23:04.652Z,99.90
2023-02-15T18:25:32.284Z,99.90
2023-02-15T18:27:59.708Z,99.90
2023-02-15T18:30:27.509Z,99.90
2023-02-15T18:32:57.472Z,99.90
2023-02-15T18:35:28.830Z,99.90
2023-02-15T18:37:56.829Z,99.90
2023-02-15T18:40:27.897Z,99.90
2023-02-15T18:42:57.159Z,99.90
2023-02-15T18:45:33.278Z,99.90
2023-02-15T18:48:01.071Z,99.90
2023-02-15T18:50:33.593Z,99.90
2023-02-15T18:53:03.204Z,99.90
2023-02-15T18:55:33.029Z,99.90
2023-02-15T18:58:01.309Z,99.90
2023-02-15T19:00:34.353Z,99.90
2023-02-15T19:03:02.871Z,99.90
2023-02-15T19:05:32.229Z,99.90
2023-02-15T19:08:01.910Z,99.90
2023-02-15T19:10:31.637Z,99.90
2023-02-15T19:12:59.336Z,99.90
2023-02-15T19:15:30.320Z,99.90
2023-02-15T19:17:58.059Z,99.60
2023-02-15T19:20:42.314Z,99.20
2023-02-15T19:23:19.336Z,98.80
2023-02-15T19:25:48.195Z,98.60
2023-02-15T19:28:19.586Z,98.40
2023-02-15T19:30:47.234Z,98.90
2023-02-15T19:33:19.633Z,99.40
2023-02-15T19:35:52.420Z,99.20
2023-02-15T19:38:24.011Z,98.80
2023-02-15T19:40:51.790Z,98.70
2023-02-15T19:43:26.379Z,98.50
2023-02-15T19:45:54.338Z,98.40
2023-02-15T19:48:21.860Z,98.70
2023-02-15T19:50:49.693Z,99.60
2023-02-15T19:53:22.345Z,99.90
2023-02-15T19:55:50.944Z,99.90
2023-02-15T19:58:19.239Z,99.90
2023-02-15T20:00:51.340Z,99.90
2023-02-15T20:03:18.829Z,99.90
2023-02-15T20:05:46.972Z,99.90
2023-02-15T20:08:20.984Z,99.90
2023-02-15T20:10:48.860Z,99.90
2023-02-15T20:13:19.401Z,99.90
2023-02-15T20:15:47.705Z,99.90
2023-02-15T20:18:15.093Z,99.90
2023-02-15T20:20:48.295Z,99.90
2023-02-15T20:23:35.713Z,99.90
2023-02-15T20:26:18.404Z,99.60
2023-02-15T20:28:46.495Z,99.90
2023-02-15T20:31:20.473Z,99.90
2023-02-15T20:33:49.294Z,99.90
2023-02-15T20:36:20.190Z,99.90
2023-02-15T20:38:48.067Z,99.90
2023-02-15T20:41:36.241Z,99.90
2023-02-15T20:44:26.243Z,99.90
2023-02-15T20:46:56.521Z,99.90
2023-02-15T20:49:25.779Z,99.90
2023-02-15T20:51:55.054Z,99.90
2023-02-15T20:54:29.197Z,99.90
2023-02-15T20:56:57.306Z,99.90
2023-02-15T20:59:30.679Z,99.90
2023-02-15T21:02:17.433Z,99.90
2023-02-15T21:04:44.895Z,99.90
2023-02-15T21:07:17.043Z,99.90
2023-02-15T21:09:44.786Z,99.90
2023-02-15T21:12:17.537Z,99.90
2023-02-15T21:14:45.918Z,99.90
2023-02-15T21:17:15.389Z,99.90
2023-02-15T21:19:43.210Z,99.90
2023-02-15T21:22:15.834Z,99.90
2023-02-15T21:24:51.680Z,99.90
2023-02-15T21:27:19.662Z,99.90
2023-02-15T21:29:47.066Z,99.90
2023-02-15T21:32:14.704Z,99.90
2023-02-15T21:34:42.153Z,99.90
2023-02-15T21:37:31.713Z,99.90
2023-02-15T21:39:59.414Z,99.90
2023-02-15T21:42:46.349Z,99.90
2023-02-15T21:45:37.400Z,99.90
2023-02-15T21:48:05.096Z,99.90
2023-02-15T21:50:52.921Z,99.90
2023-02-15T21:53:32.369Z,99.90
2023-02-15T21:56:02.686Z,99.90
2023-02-15T21:58:32.995Z,99.90
2023-02-15T22:01:01.844Z,99.90
2023-02-15T22:03:37.915Z,99.90
2023-02-15T22:06:06.089Z,99.90
2023-02-15T22:08:34.027Z,99.90
2023-02-15T22:11:01.929Z,99.90
2023-02-15T22:13:32.162Z,99.90
2023-02-15T22:15:59.762Z,99.90
2023-02-15T22:18:33.000Z,99.90
2023-02-15T22:21:02.632Z,99.90
2023-02-15T22:23:30.650Z,99.90
2023-02-15T22:26:02.595Z,99.90
2023-02-15T22:28:37.258Z,99.90
2023-02-15T22:31:07.494Z,99.90
2023-02-15T22:33:35.253Z,99.90
2023-02-15T22:36:02.791Z,99.90
2023-02-15T22:38:30.344Z,99.90
2023-02-15T22:41:04.195Z,99.90
2023-02-15T22:43:40.658Z,99.90
2023-02-15T22:46:17.691Z,99.90
2023-02-15T22:48:47.643Z,99.90
2023-02-15T22:51:17.805Z,99.90
2023-02-15T22:53:45.517Z,99.90
2023-02-15T22:56:23.257Z,99.90
2023-02-15T22:58:50.905Z,99.90
2023-02-15T23:01:32.889Z,99.90
2023-02-15T23:04:03.255Z,99.90
2023-02-15T23:06:32.223Z,99.90
2023-02-15T23:09:00.889Z,99.90
2023-02-15T23:11:28.931Z,99.90
2023-02-15T23:13:56.562Z,99.90
2023-02-15T23:16:24.163Z,99.90
2023-02-15T23:18:52.190Z,99.90
2023-02-15T23:21:22.278Z,99.90
2023-02-15T23:23:52.997Z,99.90
2023-02-15T23:26:24.814Z,99.90
2023-02-15T23:28:52.920Z,99.90
2023-02-15T23:31:23.249Z,99.90
2023-02-15T23:33:52.677Z,99.90
2023-02-15T23:36:27.608Z,99.90
2023-02-15T23:38:57.133Z,99.90
2023-02-15T23:41:30.175Z,99.90
2023-02-15T23:44:03.817Z,99.90
2023-02-15T23:46:41.289Z,99.90
2023-02-15T23:49:15.914Z,99.90
2023-02-15T23:51:52.118Z,99.90
2023-02-15T23:54:23.238Z,99.90
2023-02-15T23:56:57.973Z,99.90
2023-02-15T23:59:28.891Z,99.90
